Terminal Aerodrome Forecast
Issued by NWS

Home | Current Version | Previous Version | Text Only | Print | Product List | Glossary On
Versions: 1 2 3 4 5 6 7 8 9 10 11 12 13
071
FTUS44 KTSA 200520
TAFFYV
TAF
KFYV 200520Z 2006/2106 19012G19KT P6SM OVC015 WS020/21045KT
     FM201600 19015G23KT P6SM BKN025
     FM202200 18014KT P6SM BKN035
     FM210200 17012KT P6SM BKN025=

USA.gov is the U.S. government's official web portal to all federal, state and local government web resources and services.